createdAt,value
2019-01-31T00:02:44.974Z,-0.10
2019-01-31T00:08:22.095Z,-0.20
2019-01-31T00:14:06.717Z,-0.20
2019-01-31T00:19:19.483Z,-0.20
2019-01-31T00:24:33.359Z,-0.20
2019-01-31T00:29:46.385Z,-0.30
2019-01-31T00:35:24.264Z,-0.30
2019-01-31T00:40:50.589Z,-0.30
2019-01-31T00:46:02.699Z,-0.20
2019-01-31T00:51:19.650Z,-0.10
2019-01-31T00:56:54.048Z,0.00
2019-01-31T01:02:30.728Z,0.00
2019-01-31T01:07:51.848Z,0.00
2019-01-31T01:13:12.903Z,0.10
2019-01-31T01:18:43.360Z,0.10
2019-01-31T01:24:01.890Z,0.20
2019-01-31T01:29:21.477Z,0.20
2019-01-31T01:35:10.638Z,0.10
2019-01-31T01:40:18.218Z,0.10
2019-01-31T01:45:49.867Z,0.10
2019-01-31T01:51:23.495Z,0.00
2019-01-31T01:56:56.206Z,-0.10
2019-01-31T02:02:28.650Z,-0.30
2019-01-31T02:07:52.860Z,-0.50
2019-01-31T02:13:21.912Z,-0.70
2019-01-31T02:18:35.322Z,-0.80
2019-01-31T02:23:44.358Z,-1.00
2019-01-31T02:29:09.339Z,-1.00
2019-01-31T02:34:30.952Z,-1.00
2019-01-31T02:40:06.317Z,-1.10
2019-01-31T02:45:19.615Z,-1.10
2019-01-31T02:50:56.131Z,-1.20
2019-01-31T02:55:57.318Z,-1.30
2019-01-31T03:01:17.351Z,-1.30
2019-01-31T03:06:43.185Z,-1.30
2019-01-31T03:12:09.550Z,-1.40
2019-01-31T03:17:38.900Z,-1.50
2019-01-31T03:23:05.180Z,-1.60
2019-01-31T03:28:28.844Z,-1.60
2019-01-31T03:34:12.984Z,-1.70
2019-01-31T03:39:33.759Z,-1.80
2019-01-31T03:45:10.923Z,-1.90
2019-01-31T03:50:43.767Z,-2.10
2019-01-31T03:56:22.005Z,-2.30
2019-01-31T04:01:55.837Z,-2.20
2019-01-31T04:06:51.565Z,-2.20
2019-01-31T04:11:47.434Z,-2.30
2019-01-31T04:16:43.269Z,-2.30
2019-01-31T04:21:39.108Z,-2.40
2019-01-31T04:26:35.062Z,-2.40
2019-01-31T04:31:33.679Z,-2.50
2019-01-31T04:36:29.464Z,-2.60
2019-01-31T04:41:25.474Z,-2.70
2019-01-31T04:46:21.180Z,-2.80
2019-01-31T04:51:17.189Z,-2.90
2019-01-31T04:56:13.024Z,-2.90
2019-01-31T05:01:08.870Z,-2.90
2019-01-31T05:06:04.951Z,-2.90
2019-01-31T05:11:00.898Z,-3.00
2019-01-31T05:15:56.685Z,-3.00
2019-01-31T05:20:52.447Z,-3.10
2019-01-31T05:25:49.924Z,-3.20
2019-01-31T05:30:45.834Z,-3.20
2019-01-31T05:35:42.842Z,-3.30
2019-01-31T05:40:39.975Z,-3.30
2019-01-31T05:45:35.907Z,-3.40
2019-01-31T05:50:31.674Z,-3.40
2019-01-31T05:55:27.486Z,-3.50
2019-01-31T06:00:39.074Z,-3.50
2019-01-31T06:05:34.991Z,-3.50
2019-01-31T06:10:33.794Z,-3.70
2019-01-31T06:15:29.690Z,-3.80
2019-01-31T06:20:26.276Z,-3.80
2019-01-31T06:25:22.237Z,-3.90
2019-01-31T06:30:31.827Z,-3.90
2019-01-31T06:35:27.712Z,-4.00
2019-01-31T06:40:23.720Z,-3.50
2019-01-31T06:45:20.841Z,-3.40
2019-01-31T06:50:18.455Z,-3.50
2019-01-31T06:55:14.648Z,-3.70
2019-01-31T07:00:23.391Z,-3.80
2019-01-31T07:05:20.514Z,-3.70
2019-01-31T07:10:31.300Z,-3.70
2019-01-31T07:15:27.319Z,-3.70
2019-01-31T07:20:23.171Z,-3.60
2019-01-31T07:25:21.164Z,-3.50
2019-01-31T07:30:18.786Z,-3.30
2019-01-31T07:35:15.511Z,-3.20
2019-01-31T07:40:12.510Z,-3.00
2019-01-31T07:45:28.231Z,-2.90
2019-01-31T07:50:24.045Z,-2.80
2019-01-31T07:55:20.152Z,-2.80
2019-01-31T08:00:17.202Z,-2.80
2019-01-31T08:05:23.769Z,-2.70
2019-01-31T08:10:22.164Z,-2.50
2019-01-31T08:15:19.460Z,-2.30
2019-01-31T08:20:16.570Z,-2.00
2019-01-31T08:25:14.691Z,-1.90
2019-01-31T08:30:16.746Z,-1.80
2019-01-31T08:35:12.818Z,-1.70
2019-01-31T08:40:09.127Z,-1.70
2019-01-31T08:45:05.318Z,-1.60
2019-01-31T08:50:01.872Z,-1.60
2019-01-31T08:54:57.771Z,-1.40
2019-01-31T08:59:53.636Z,-1.30
2019-01-31T09:04:49.819Z,-1.10
2019-01-31T09:09:45.921Z,-1.00
2019-01-31T09:14:41.730Z,-0.90
2019-01-31T09:19:37.502Z,-0.70
2019-01-31T09:25:00.324Z,-0.70
2019-01-31T09:30:31.002Z,-0.60
2019-01-31T09:36:01.263Z,-0.50
2019-01-31T09:41:22.805Z,-0.30
2019-01-31T09:46:55.375Z,-0.10
2019-01-31T09:52:32.073Z,-0.10
2019-01-31T09:57:58.831Z,0.10
2019-01-31T10:03:35.405Z,0.30
2019-01-31T10:08:50.067Z,0.50
2019-01-31T10:14:30.023Z,0.60
2019-01-31T10:20:27.815Z,0.80
2019-01-31T10:26:06.624Z,1.00
2019-01-31T10:31:50.363Z,1.10
2019-01-31T10:37:30.731Z,1.00
2019-01-31T10:42:54.117Z,1.40
2019-01-31T10:48:14.553Z,1.70
2019-01-31T10:53:30.672Z,2.10
2019-01-31T10:59:35.090Z,2.50
2019-01-31T11:05:06.752Z,2.60
2019-01-31T11:10:45.353Z,2.60
2019-01-31T11:16:08.155Z,2.60
2019-01-31T11:21:53.680Z,2.50
2019-01-31T11:27:32.356Z,2.50
2019-01-31T11:33:26.042Z,2.70
2019-01-31T11:39:20.017Z,2.80
2019-01-31T11:44:54.871Z,2.90
2019-01-31T11:50:29.224Z,2.90
2019-01-31T11:55:50.239Z,3.00
2019-01-31T12:00:46.161Z,3.00
2019-01-31T12:05:45.201Z,3.20
2019-01-31T12:10:41.211Z,3.30
2019-01-31T12:15:37.237Z,3.40
2019-01-31T12:20:33.040Z,3.50
2019-01-31T12:25:33.811Z,3.50
2019-01-31T12:30:30.108Z,3.50
2019-01-31T12:35:25.939Z,3.40
2019-01-31T12:40:21.810Z,3.40
2019-01-31T12:45:20.006Z,3.50
2019-01-31T12:50:18.978Z,3.50
2019-01-31T12:55:14.846Z,3.40
2019-01-31T13:00:23.902Z,3.30
2019-01-31T13:05:19.927Z,3.10
2019-01-31T13:10:15.888Z,3.10
2019-01-31T13:15:11.873Z,3.00
2019-01-31T13:20:14.470Z,3.00
2019-01-31T13:25:10.739Z,2.90
2019-01-31T13:30:07.977Z,2.80
2019-01-31T13:35:03.954Z,2.70
2019-01-31T13:39:59.929Z,2.60
2019-01-31T13:44:56.146Z,2.60
2019-01-31T13:49:52.044Z,2.50
2019-01-31T13:54:47.934Z,2.50
2019-01-31T13:59:44.152Z,2.50
2019-01-31T14:04:39.999Z,2.40
2019-01-31T14:09:35.982Z,2.30
2019-01-31T14:14:31.838Z,2.20
2019-01-31T14:19:29.037Z,2.10
2019-01-31T14:24:24.873Z,2.10
2019-01-31T14:29:20.806Z,2.10
2019-01-31T14:34:16.690Z,2.10
2019-01-31T14:39:12.582Z,2.00
2019-01-31T14:44:19.893Z,2.00
2019-01-31T14:49:06.275Z,2.00
2019-01-31T14:54:02.279Z,2.00
2019-01-31T14:58:58.275Z,1.90
2019-01-31T15:03:54.207Z,1.80
2019-01-31T15:08:50.053Z,1.80
2019-01-31T15:13:45.891Z,1.70
2019-01-31T15:18:41.909Z,1.70
2019-01-31T15:23:37.783Z,1.70
2019-01-31T15:28:33.661Z,1.60
2019-01-31T15:33:29.656Z,1.50
2019-01-31T15:38:28.930Z,1.40
2019-01-31T15:43:25.064Z,1.30
2019-01-31T15:48:21.263Z,1.20
2019-01-31T15:53:17.421Z,1.10
2019-01-31T15:58:13.726Z,1.00
2019-01-31T16:03:11.548Z,1.00
2019-01-31T16:08:07.885Z,0.90
2019-01-31T16:13:03.804Z,0.90
2019-01-31T16:18:02.118Z,0.80
2019-01-31T16:22:57.943Z,0.80
2019-01-31T16:27:55.216Z,0.80
2019-01-31T16:32:51.103Z,0.80
2019-01-31T16:37:47.691Z,0.80
2019-01-31T16:42:43.587Z,0.70
2019-01-31T16:47:39.559Z,0.60
2019-01-31T16:52:35.387Z,0.70
2019-01-31T16:57:33.210Z,0.70
2019-01-31T17:02:28.712Z,0.60
2019-01-31T17:07:24.671Z,0.60
2019-01-31T17:12:20.548Z,0.60
2019-01-31T17:17:16.369Z,0.60
2019-01-31T17:22:12.303Z,0.60
2019-01-31T17:27:08.245Z,0.60
2019-01-31T17:32:04.090Z,0.60
2019-01-31T17:36:59.921Z,0.60
2019-01-31T17:41:55.775Z,0.70
2019-01-31T17:46:51.697Z,0.70
2019-01-31T17:51:47.573Z,0.60
2019-01-31T17:56:43.442Z,0.70
2019-01-31T18:01:39.344Z,0.70
2019-01-31T18:06:38.291Z,0.80
2019-01-31T18:11:35.731Z,0.80
2019-01-31T18:16:31.627Z,0.70
2019-01-31T18:21:27.453Z,0.70
2019-01-31T18:26:24.251Z,0.60
2019-01-31T18:31:22.363Z,0.60
2019-01-31T18:36:18.962Z,0.50
2019-01-31T18:41:15.071Z,0.50
2019-01-31T18:46:10.904Z,0.40
2019-01-31T18:51:06.740Z,0.40
2019-01-31T18:56:02.604Z,0.30
2019-01-31T19:00:59.625Z,0.30
2019-01-31T19:05:55.794Z,0.20
2019-01-31T19:10:52.732Z,0.10
2019-01-31T19:15:49.926Z,0.10
2019-01-31T19:20:46.193Z,0.00
2019-01-31T19:25:42.093Z,-0.10
2019-01-31T19:30:41.197Z,-0.40
2019-01-31T19:35:41.466Z,-0.50
2019-01-31T19:40:38.777Z,-0.50
2019-01-31T19:45:42.904Z,-0.60
2019-01-31T19:50:39.069Z,-0.50
2019-01-31T19:55:37.745Z,-0.60
2019-01-31T20:00:33.806Z,-0.60
2019-01-31T20:05:29.902Z,-0.70
2019-01-31T20:10:27.175Z,-0.70
2019-01-31T20:15:23.402Z,-0.70
2019-01-31T20:20:25.610Z,-0.70
2019-01-31T20:25:22.046Z,-0.70
2019-01-31T20:30:23.387Z,-0.60
2019-01-31T20:35:19.728Z,-0.60
2019-01-31T20:40:18.213Z,-0.60
2019-01-31T20:45:14.982Z,-0.60
2019-01-31T20:50:17.169Z,-0.60
2019-01-31T20:55:14.200Z,-0.50
2019-01-31T21:00:24.809Z,-0.50
2019-01-31T21:05:20.913Z,-0.40
2019-01-31T21:10:17.259Z,-0.40
2019-01-31T21:15:19.027Z,-0.40
2019-01-31T21:20:15.787Z,-0.40
2019-01-31T21:25:12.498Z,-0.30
2019-01-31T21:30:13.309Z,-0.30
2019-01-31T21:35:09.830Z,-0.30
2019-01-31T21:40:06.603Z,-0.30
2019-01-31T21:45:02.680Z,-0.30
2019-01-31T21:49:58.612Z,-0.20
2019-01-31T21:54:55.432Z,-0.10
2019-01-31T21:59:52.647Z,-0.10
2019-01-31T22:04:48.447Z,-0.10
2019-01-31T22:09:44.460Z,-0.10
2019-01-31T22:14:40.268Z,-0.10
2019-01-31T22:19:36.209Z,-0.20
2019-01-31T22:24:33.422Z,-0.20
2019-01-31T22:29:29.302Z,-0.20
2019-01-31T22:34:25.100Z,-0.20
2019-01-31T22:39:20.936Z,-0.20
2019-01-31T22:44:17.157Z,-0.20
2019-01-31T22:49:12.971Z,-0.10
2019-01-31T22:54:08.822Z,-0.20
2019-01-31T22:59:05.053Z,-0.30
2019-01-31T23:04:01.284Z,-0.30
2019-01-31T23:08:57.169Z,-0.30
2019-01-31T23:13:53.299Z,-0.30
2019-01-31T23:18:49.460Z,-0.20
2019-01-31T23:23:45.275Z,-0.20
2019-01-31T23:28:41.128Z,-0.30
2019-01-31T23:33:36.922Z,-0.30
2019-01-31T23:38:32.677Z,-0.30
2019-01-31T23:43:28.505Z,-0.30
2019-01-31T23:48:24.310Z,-0.30
2019-01-31T23:53:20.558Z,-0.30
2019-01-31T23:58:16.450Z,-0.20
